sensor_id;sensor_type;location;lat;lon;timestamp;P1;durP1;ratioP1;P2;durP2;ratioP2
17384;SDS011;8810;48.680;8.894;2022-12-10T00:00:25;43.50;;;19.63;;
17384;SDS011;8810;48.680;8.894;2022-12-10T00:02:52;44.73;;;20.37;;
17384;SDS011;8810;48.680;8.894;2022-12-10T00:05:20;46.13;;;20.17;;
17384;SDS011;8810;48.680;8.894;2022-12-10T00:07:47;43.93;;;20.53;;
17384;SDS011;8810;48.680;8.894;2022-12-10T00:10:14;48.80;;;20.97;;
17384;SDS011;8810;48.680;8.894;2022-12-10T00:12:41;46.97;;;20.40;;
17384;SDS011;8810;48.680;8.894;2022-12-10T00:15:08;46.93;;;21.10;;
17384;SDS011;8810;48.680;8.894;2022-12-10T00:17:35;43.13;;;19.40;;
17384;SDS011;8810;48.680;8.894;2022-12-10T00:20:02;42.20;;;19.43;;
17384;SDS011;8810;48.680;8.894;2022-12-10T00:22:31;40.00;;;18.80;;
17384;SDS011;8810;48.680;8.894;2022-12-10T00:24:58;41.63;;;19.47;;
17384;SDS011;8810;48.680;8.894;2022-12-10T00:27:25;39.17;;;19.27;;
17384;SDS011;8810;48.680;8.894;2022-12-10T00:29:51;48.00;;;20.93;;
17384;SDS011;8810;48.680;8.894;2022-12-10T00:32:18;46.10;;;20.43;;
17384;SDS011;8810;48.680;8.894;2022-12-10T00:34:45;45.53;;;20.93;;
17384;SDS011;8810;48.680;8.894;2022-12-10T00:37:12;47.07;;;21.10;;
17384;SDS011;8810;48.680;8.894;2022-12-10T00:39:40;40.00;;;18.83;;
17384;SDS011;8810;48.680;8.894;2022-12-10T00:42:07;40.90;;;19.37;;
17384;SDS011;8810;48.680;8.894;2022-12-10T00:44:33;48.53;;;21.53;;
17384;SDS011;8810;48.680;8.894;2022-12-10T00:47:00;41.30;;;18.60;;
17384;SDS011;8810;48.680;8.894;2022-12-10T00:49:27;41.83;;;19.63;;
17384;SDS011;8810;48.680;8.894;2022-12-10T00:51:54;45.43;;;20.70;;
17384;SDS011;8810;48.680;8.894;2022-12-10T00:54:21;40.40;;;18.87;;
17384;SDS011;8810;48.680;8.894;2022-12-10T00:56:49;40.07;;;19.23;;
17384;SDS011;8810;48.680;8.894;2022-12-10T00:59:15;41.07;;;19.87;;
17384;SDS011;8810;48.680;8.894;2022-12-10T01:01:43;41.50;;;19.43;;
17384;SDS011;8810;48.680;8.894;2022-12-10T01:04:10;46.30;;;20.03;;
17384;SDS011;8810;48.680;8.894;2022-12-10T01:06:41;43.27;;;20.47;;
17384;SDS011;8810;48.680;8.894;2022-12-10T01:09:10;48.17;;;20.70;;
17384;SDS011;8810;48.680;8.894;2022-12-10T01:11:39;44.73;;;19.03;;
17384;SDS011;8810;48.680;8.894;2022-12-10T01:14:11;51.30;;;21.07;;
17384;SDS011;8810;48.680;8.894;2022-12-10T01:16:42;53.70;;;22.23;;
17384;SDS011;8810;48.680;8.894;2022-12-10T01:19:09;46.03;;;20.73;;
17384;SDS011;8810;48.680;8.894;2022-12-10T01:21:36;46.37;;;21.10;;
17384;SDS011;8810;48.680;8.894;2022-12-10T01:24:03;39.37;;;18.90;;
17384;SDS011;8810;48.680;8.894;2022-12-10T01:26:32;40.00;;;19.87;;
17384;SDS011;8810;48.680;8.894;2022-12-10T01:28:59;43.87;;;20.10;;
17384;SDS011;8810;48.680;8.894;2022-12-10T01:31:31;45.90;;;20.57;;
17384;SDS011;8810;48.680;8.894;2022-12-10T01:34:00;45.40;;;19.77;;
17384;SDS011;8810;48.680;8.894;2022-12-10T01:36:29;40.73;;;19.10;;
17384;SDS011;8810;48.680;8.894;2022-12-10T01:38:57;45.00;;;20.80;;
17384;SDS011;8810;48.680;8.894;2022-12-10T01:41:25;42.97;;;19.13;;
17384;SDS011;8810;48.680;8.894;2022-12-10T01:43:55;44.93;;;19.67;;
17384;SDS011;8810;48.680;8.894;2022-12-10T01:46:24;41.60;;;19.13;;
17384;SDS011;8810;48.680;8.894;2022-12-10T01:48:54;41.70;;;20.83;;
17384;SDS011;8810;48.680;8.894;2022-12-10T01:51:22;44.70;;;19.83;;
17384;SDS011;8810;48.680;8.894;2022-12-10T01:53:51;41.73;;;19.53;;
17384;SDS011;8810;48.680;8.894;2022-12-10T01:56:18;38.27;;;19.80;;
17384;SDS011;8810;48.680;8.894;2022-12-10T01:58:47;45.70;;;19.43;;
17384;SDS011;8810;48.680;8.894;2022-12-10T02:01:18;40.10;;;18.77;;
17384;SDS011;8810;48.680;8.894;2022-12-10T02:03:52;41.37;;;18.93;;
17384;SDS011;8810;48.680;8.894;2022-12-10T02:06:35;39.57;;;18.90;;
17384;SDS011;8810;48.680;8.894;2022-12-10T02:09:14;42.53;;;20.30;;
17384;SDS011;8810;48.680;8.894;2022-12-10T02:11:49;47.00;;;20.63;;
17384;SDS011;8810;48.680;8.894;2022-12-10T02:14:28;38.30;;;17.93;;
17384;SDS011;8810;48.680;8.894;2022-12-10T02:17:01;41.10;;;19.13;;
17384;SDS011;8810;48.680;8.894;2022-12-10T02:19:35;40.47;;;20.43;;
17384;SDS011;8810;48.680;8.894;2022-12-10T02:22:21;42.43;;;19.23;;
17384;SDS011;8810;48.680;8.894;2022-12-10T02:24:51;37.33;;;18.63;;
17384;SDS011;8810;48.680;8.894;2022-12-10T02:27:22;38.93;;;18.90;;
17384;SDS011;8810;48.680;8.894;2022-12-10T02:29:54;44.50;;;18.47;;
17384;SDS011;8810;48.680;8.894;2022-12-10T02:32:23;38.93;;;17.93;;
17384;SDS011;8810;48.680;8.894;2022-12-10T02:34:54;38.43;;;17.20;;
17384;SDS011;8810;48.680;8.894;2022-12-10T02:37:28;39.40;;;18.63;;
17384;SDS011;8810;48.680;8.894;2022-12-10T02:39:58;40.97;;;18.13;;
17384;SDS011;8810;48.680;8.894;2022-12-10T02:42:29;40.83;;;19.23;;
17384;SDS011;8810;48.680;8.894;2022-12-10T02:44:59;38.13;;;18.70;;
17384;SDS011;8810;48.680;8.894;2022-12-10T02:47:27;38.53;;;18.13;;
17384;SDS011;8810;48.680;8.894;2022-12-10T02:49:55;39.77;;;18.63;;
17384;SDS011;8810;48.680;8.894;2022-12-10T02:52:24;40.50;;;18.67;;
17384;SDS011;8810;48.680;8.894;2022-12-10T02:54:50;40.97;;;18.50;;
17384;SDS011;8810;48.680;8.894;2022-12-10T02:57:21;39.50;;;18.07;;
17384;SDS011;8810;48.680;8.894;2022-12-10T03:00:06;43.17;;;19.57;;
17384;SDS011;8810;48.680;8.894;2022-12-10T03:02:40;38.20;;;18.03;;
17384;SDS011;8810;48.680;8.894;2022-12-10T03:05:21;37.03;;;18.73;;
17384;SDS011;8810;48.680;8.894;2022-12-10T03:07:55;39.00;;;18.67;;
17384;SDS011;8810;48.680;8.894;2022-12-10T03:10:28;44.63;;;18.73;;
17384;SDS011;8810;48.680;8.894;2022-12-10T03:13:00;43.73;;;18.77;;
17384;SDS011;8810;48.680;8.894;2022-12-10T03:15:31;39.70;;;18.30;;
17384;SDS011;8810;48.680;8.894;2022-12-10T03:18:02;39.10;;;18.30;;
17384;SDS011;8810;48.680;8.894;2022-12-10T03:20:30;46.27;;;19.67;;
17384;SDS011;8810;48.680;8.894;2022-12-10T03:22:58;45.23;;;19.60;;
17384;SDS011;8810;48.680;8.894;2022-12-10T03:25:27;43.37;;;18.63;;
17384;SDS011;8810;48.680;8.894;2022-12-10T03:27:56;40.87;;;18.33;;
17384;SDS011;8810;48.680;8.894;2022-12-10T03:30:25;40.13;;;18.93;;
17384;SDS011;8810;48.680;8.894;2022-12-10T03:32:53;37.00;;;16.90;;
17384;SDS011;8810;48.680;8.894;2022-12-10T03:35:20;43.93;;;18.13;;
17384;SDS011;8810;48.680;8.894;2022-12-10T03:37:49;36.40;;;16.57;;
17384;SDS011;8810;48.680;8.894;2022-12-10T03:40:18;36.37;;;18.10;;
17384;SDS011;8810;48.680;8.894;2022-12-10T03:42:48;37.53;;;18.33;;
17384;SDS011;8810;48.680;8.894;2022-12-10T03:45:15;42.03;;;19.13;;
17384;SDS011;8810;48.680;8.894;2022-12-10T03:47:42;39.10;;;19.10;;
17384;SDS011;8810;48.680;8.894;2022-12-10T03:50:10;36.83;;;17.63;;
17384;SDS011;8810;48.680;8.894;2022-12-10T03:52:37;36.47;;;17.40;;
17384;SDS011;8810;48.680;8.894;2022-12-10T03:55:05;38.43;;;18.03;;
17384;SDS011;8810;48.680;8.894;2022-12-10T03:57:32;35.53;;;16.90;;
17384;SDS011;8810;48.680;8.894;2022-12-10T03:59:59;33.77;;;17.50;;
17384;SDS011;8810;48.680;8.894;2022-12-10T04:02:26;37.53;;;17.93;;
17384;SDS011;8810;48.680;8.894;2022-12-10T04:04:53;34.87;;;17.80;;
17384;SDS011;8810;48.680;8.894;2022-12-10T04:07:21;37.83;;;17.03;;
17384;SDS011;8810;48.680;8.894;2022-12-10T04:09:48;37.83;;;18.03;;
17384;SDS011;8810;48.680;8.894;2022-12-10T04:12:15;39.53;;;19.23;;
17384;SDS011;8810;48.680;8.894;2022-12-10T04:14:42;38.87;;;18.53;;
17384;SDS011;8810;48.680;8.894;2022-12-10T04:17:26;39.13;;;18.30;;
17384;SDS011;8810;48.680;8.894;2022-12-10T04:19:53;40.93;;;19.13;;
17384;SDS011;8810;48.680;8.894;2022-12-10T04:22:20;39.47;;;17.90;;
17384;SDS011;8810;48.680;8.894;2022-12-10T04:25:05;38.93;;;19.00;;
17384;SDS011;8810;48.680;8.894;2022-12-10T04:27:46;40.13;;;19.10;;
17384;SDS011;8810;48.680;8.894;2022-12-10T04:30:13;37.73;;;17.83;;
17384;SDS011;8810;48.680;8.894;2022-12-10T04:32:40;38.57;;;18.30;;
17384;SDS011;8810;48.680;8.894;2022-12-10T04:35:07;40.77;;;18.87;;
17384;SDS011;8810;48.680;8.894;2022-12-10T04:37:36;38.37;;;18.53;;
17384;SDS011;8810;48.680;8.894;2022-12-10T04:40:04;41.40;;;17.87;;
17384;SDS011;8810;48.680;8.894;2022-12-10T04:42:31;38.37;;;17.33;;
17384;SDS011;8810;48.680;8.894;2022-12-10T04:44:58;41.43;;;18.53;;
17384;SDS011;8810;48.680;8.894;2022-12-10T04:47:25;38.60;;;18.37;;
17384;SDS011;8810;48.680;8.894;2022-12-10T04:49:52;39.93;;;18.13;;
17384;SDS011;8810;48.680;8.894;2022-12-10T04:52:19;39.33;;;20.75;;
17384;SDS011;8810;48.680;8.894;2022-12-10T04:54:47;40.50;;;19.03;;
17384;SDS011;8810;48.680;8.894;2022-12-10T04:57:14;40.17;;;19.70;;
17384;SDS011;8810;48.680;8.894;2022-12-10T04:59:40;36.07;;;17.27;;
17384;SDS011;8810;48.680;8.894;2022-12-10T05:02:08;36.47;;;17.67;;
17384;SDS011;8810;48.680;8.894;2022-12-10T05:04:35;32.20;;;16.93;;
17384;SDS011;8810;48.680;8.894;2022-12-10T05:07:02;36.53;;;17.07;;
17384;SDS011;8810;48.680;8.894;2022-12-10T05:09:29;40.70;;;18.73;;
17384;SDS011;8810;48.680;8.894;2022-12-10T05:11:57;36.83;;;18.33;;
17384;SDS011;8810;48.680;8.894;2022-12-10T05:14:24;42.07;;;18.47;;
17384;SDS011;8810;48.680;8.894;2022-12-10T05:16:51;35.73;;;17.03;;
17384;SDS011;8810;48.680;8.894;2022-12-10T05:19:18;36.00;;;17.70;;
17384;SDS011;8810;48.680;8.894;2022-12-10T05:21:46;40.90;;;19.13;;
17384;SDS011;8810;48.680;8.894;2022-12-10T05:24:31;36.13;;;16.73;;
17384;SDS011;8810;48.680;8.894;2022-12-10T05:26:59;39.80;;;17.70;;
17384;SDS011;8810;48.680;8.894;2022-12-10T05:29:26;39.77;;;18.17;;
17384;SDS011;8810;48.680;8.894;2022-12-10T05:31:52;36.73;;;17.23;;
17384;SDS011;8810;48.680;8.894;2022-12-10T05:34:19;36.17;;;18.17;;
17384;SDS011;8810;48.680;8.894;2022-12-10T05:36:46;41.17;;;18.43;;
17384;SDS011;8810;48.680;8.894;2022-12-10T05:39:13;41.97;;;18.87;;
17384;SDS011;8810;48.680;8.894;2022-12-10T05:41:40;40.50;;;18.27;;
17384;SDS011;8810;48.680;8.894;2022-12-10T05:44:10;36.57;;;17.13;;
17384;SDS011;8810;48.680;8.894;2022-12-10T05:46:37;39.77;;;18.67;;
17384;SDS011;8810;48.680;8.894;2022-12-10T05:49:04;36.63;;;16.77;;
17384;SDS011;8810;48.680;8.894;2022-12-10T05:51:32;39.80;;;17.90;;
17384;SDS011;8810;48.680;8.894;2022-12-10T05:54:01;37.67;;;17.33;;
17384;SDS011;8810;48.680;8.894;2022-12-10T05:56:28;36.77;;;19.10;;
17384;SDS011;8810;48.680;8.894;2022-12-10T05:58:57;38.20;;;17.57;;
17384;SDS011;8810;48.680;8.894;2022-12-10T06:01:27;40.67;;;18.10;;
17384;SDS011;8810;48.680;8.894;2022-12-10T06:03:56;40.90;;;18.80;;
17384;SDS011;8810;48.680;8.894;2022-12-10T06:06:24;42.83;;;18.97;;
17384;SDS011;8810;48.680;8.894;2022-12-10T06:08:52;40.60;;;18.27;;
17384;SDS011;8810;48.680;8.894;2022-12-10T06:11:19;38.97;;;17.93;;
17384;SDS011;8810;48.680;8.894;2022-12-10T06:13:46;40.77;;;17.93;;
17384;SDS011;8810;48.680;8.894;2022-12-10T06:16:14;46.67;;;21.57;;
17384;SDS011;8810;48.680;8.894;2022-12-10T06:18:42;38.30;;;17.47;;
17384;SDS011;8810;48.680;8.894;2022-12-10T06:21:11;39.73;;;18.33;;
17384;SDS011;8810;48.680;8.894;2022-12-10T06:23:39;41.57;;;19.53;;
17384;SDS011;8810;48.680;8.894;2022-12-10T06:26:07;35.20;;;18.17;;
17384;SDS011;8810;48.680;8.894;2022-12-10T06:28:35;35.97;;;18.33;;
17384;SDS011;8810;48.680;8.894;2022-12-10T06:31:03;38.00;;;17.93;;
17384;SDS011;8810;48.680;8.894;2022-12-10T06:33:30;35.90;;;17.57;;
17384;SDS011;8810;48.680;8.894;2022-12-10T06:35:59;43.07;;;19.83;;
17384;SDS011;8810;48.680;8.894;2022-12-10T06:38:28;37.53;;;17.97;;
17384;SDS011;8810;48.680;8.894;2022-12-10T06:40:55;37.07;;;17.83;;
17384;SDS011;8810;48.680;8.894;2022-12-10T06:43:22;35.23;;;17.93;;
17384;SDS011;8810;48.680;8.894;2022-12-10T06:45:49;37.83;;;18.73;;
17384;SDS011;8810;48.680;8.894;2022-12-10T06:48:15;38.17;;;18.13;;
17384;SDS011;8810;48.680;8.894;2022-12-10T06:50:42;34.93;;;16.60;;
17384;SDS011;8810;48.680;8.894;2022-12-10T06:53:10;43.13;;;20.33;;
17384;SDS011;8810;48.680;8.894;2022-12-10T06:55:37;35.70;;;18.70;;
17384;SDS011;8810;48.680;8.894;2022-12-10T06:58:04;39.13;;;18.63;;
17384;SDS011;8810;48.680;8.894;2022-12-10T07:00:31;38.97;;;18.70;;
17384;SDS011;8810;48.680;8.894;2022-12-10T07:02:58;44.37;;;19.77;;
17384;SDS011;8810;48.680;8.894;2022-12-10T07:05:25;41.10;;;19.03;;
17384;SDS011;8810;48.680;8.894;2022-12-10T07:07:52;40.60;;;19.80;;
17384;SDS011;8810;48.680;8.894;2022-12-10T07:10:20;38.57;;;17.97;;
17384;SDS011;8810;48.680;8.894;2022-12-10T07:12:48;38.33;;;18.20;;
17384;SDS011;8810;48.680;8.894;2022-12-10T07:15:15;39.30;;;18.10;;
17384;SDS011;8810;48.680;8.894;2022-12-10T07:17:42;42.13;;;20.23;;
17384;SDS011;8810;48.680;8.894;2022-12-10T07:20:09;36.70;;;18.13;;
17384;SDS011;8810;48.680;8.894;2022-12-10T07:22:37;40.70;;;18.87;;
17384;SDS011;8810;48.680;8.894;2022-12-10T07:25:04;45.03;;;20.20;;
17384;SDS011;8810;48.680;8.894;2022-12-10T07:27:33;77.60;;;34.77;;
17384;SDS011;8810;48.680;8.894;2022-12-10T07:29:59;52.17;;;25.13;;
17384;SDS011;8810;48.680;8.894;2022-12-10T07:32:26;46.67;;;22.03;;
17384;SDS011;8810;48.680;8.894;2022-12-10T07:34:53;43.43;;;19.20;;
17384;SDS011;8810;48.680;8.894;2022-12-10T07:37:20;40.27;;;18.50;;
17384;SDS011;8810;48.680;8.894;2022-12-10T07:39:47;36.00;;;17.87;;
17384;SDS011;8810;48.680;8.894;2022-12-10T07:42:14;44.20;;;20.03;;
17384;SDS011;8810;48.680;8.894;2022-12-10T07:44:42;38.30;;;17.60;;
17384;SDS011;8810;48.680;8.894;2022-12-10T07:47:09;40.70;;;18.50;;
17384;SDS011;8810;48.680;8.894;2022-12-10T07:49:36;39.40;;;19.03;;
17384;SDS011;8810;48.680;8.894;2022-12-10T07:52:02;44.13;;;19.43;;
17384;SDS011;8810;48.680;8.894;2022-12-10T07:54:30;43.13;;;18.43;;
17384;SDS011;8810;48.680;8.894;2022-12-10T07:56:56;41.92;;;20.38;;
17384;SDS011;8810;48.680;8.894;2022-12-10T07:59:23;37.70;;;18.30;;
17384;SDS011;8810;48.680;8.894;2022-12-10T08:01:51;38.30;;;18.07;;
17384;SDS011;8810;48.680;8.894;2022-12-10T08:04:18;43.57;;;19.23;;
17384;SDS011;8810;48.680;8.894;2022-12-10T08:06:45;42.43;;;19.10;;
17384;SDS011;8810;48.680;8.894;2022-12-10T08:09:12;44.07;;;20.93;;
17384;SDS011;8810;48.680;8.894;2022-12-10T08:11:39;48.20;;;20.57;;
17384;SDS011;8810;48.680;8.894;2022-12-10T08:14:06;42.53;;;19.70;;
17384;SDS011;8810;48.680;8.894;2022-12-10T08:16:33;41.60;;;20.33;;
17384;SDS011;8810;48.680;8.894;2022-12-10T08:19:01;42.40;;;20.63;;
17384;SDS011;8810;48.680;8.894;2022-12-10T08:21:29;38.53;;;18.97;;
17384;SDS011;8810;48.680;8.894;2022-12-10T08:23:59;35.37;;;18.30;;
17384;SDS011;8810;48.680;8.894;2022-12-10T08:26:28;40.70;;;18.83;;
17384;SDS011;8810;48.680;8.894;2022-12-10T08:28:56;37.70;;;17.70;;
17384;SDS011;8810;48.680;8.894;2022-12-10T08:31:24;35.80;;;17.03;;
17384;SDS011;8810;48.680;8.894;2022-12-10T08:33:52;37.87;;;18.70;;
17384;SDS011;8810;48.680;8.894;2022-12-10T08:36:20;44.30;;;19.27;;
17384;SDS011;8810;48.680;8.894;2022-12-10T08:38:47;37.27;;;18.13;;
17384;SDS011;8810;48.680;8.894;2022-12-10T08:41:15;34.60;;;17.63;;
17384;SDS011;8810;48.680;8.894;2022-12-10T08:43:44;38.20;;;17.80;;
17384;SDS011;8810;48.680;8.894;2022-12-10T08:46:12;35.57;;;17.03;;
17384;SDS011;8810;48.680;8.894;2022-12-10T08:48:39;39.40;;;17.97;;
17384;SDS011;8810;48.680;8.894;2022-12-10T08:51:08;38.27;;;17.67;;
17384;SDS011;8810;48.680;8.894;2022-12-10T08:53:37;32.70;;;17.27;;
17384;SDS011;8810;48.680;8.894;2022-12-10T08:56:04;33.67;;;16.83;;
17384;SDS011;8810;48.680;8.894;2022-12-10T08:58:31;39.23;;;18.33;;
17384;SDS011;8810;48.680;8.894;2022-12-10T09:00:58;35.63;;;16.87;;
17384;SDS011;8810;48.680;8.894;2022-12-10T09:03:26;34.53;;;16.83;;
17384;SDS011;8810;48.680;8.894;2022-12-10T09:05:53;32.70;;;16.90;;
17384;SDS011;8810;48.680;8.894;2022-12-10T09:08:20;35.30;;;17.17;;
17384;SDS011;8810;48.680;8.894;2022-12-10T09:10:48;36.97;;;18.00;;
17384;SDS011;8810;48.680;8.894;2022-12-10T09:13:15;33.90;;;17.50;;
17384;SDS011;8810;48.680;8.894;2022-12-10T09:15:48;38.17;;;18.33;;
17384;SDS011;8810;48.680;8.894;2022-12-10T09:18:15;35.37;;;17.73;;
17384;SDS011;8810;48.680;8.894;2022-12-10T09:20:42;37.40;;;18.50;;
17384;SDS011;8810;48.680;8.894;2022-12-10T09:23:09;30.23;;;15.90;;
17384;SDS011;8810;48.680;8.894;2022-12-10T09:25:36;42.63;;;19.13;;
17384;SDS011;8810;48.680;8.894;2022-12-10T09:28:04;38.50;;;18.03;;
17384;SDS011;8810;48.680;8.894;2022-12-10T09:30:31;37.87;;;17.93;;
17384;SDS011;8810;48.680;8.894;2022-12-10T09:32:58;34.97;;;17.80;;
17384;SDS011;8810;48.680;8.894;2022-12-10T09:35:25;38.63;;;17.37;;
17384;SDS011;8810;48.680;8.894;2022-12-10T09:37:52;35.27;;;17.73;;
17384;SDS011;8810;48.680;8.894;2022-12-10T09:40:21;33.27;;;17.50;;
17384;SDS011;8810;48.680;8.894;2022-12-10T09:42:54;37.50;;;17.57;;
17384;SDS011;8810;48.680;8.894;2022-12-10T09:45:29;35.47;;;17.70;;
17384;SDS011;8810;48.680;8.894;2022-12-10T09:48:01;38.47;;;17.30;;
17384;SDS011;8810;48.680;8.894;2022-12-10T09:50:38;33.60;;;16.60;;
17384;SDS011;8810;48.680;8.894;2022-12-10T09:53:15;32.17;;;16.27;;
17384;SDS011;8810;48.680;8.894;2022-12-10T09:55:46;35.40;;;17.33;;
17384;SDS011;8810;48.680;8.894;2022-12-10T09:58:16;32.43;;;15.77;;
17384;SDS011;8810;48.680;8.894;2022-12-10T10:00:48;38.33;;;17.13;;
17384;SDS011;8810;48.680;8.894;2022-12-10T10:03:18;36.17;;;17.30;;
17384;SDS011;8810;48.680;8.894;2022-12-10T10:05:45;34.03;;;17.03;;
17384;SDS011;8810;48.680;8.894;2022-12-10T10:08:26;34.63;;;16.40;;
17384;SDS011;8810;48.680;8.894;2022-12-10T10:10:57;35.00;;;16.87;;
17384;SDS011;8810;48.680;8.894;2022-12-10T10:13:27;36.30;;;16.70;;
17384;SDS011;8810;48.680;8.894;2022-12-10T10:16:04;32.53;;;16.10;;
17384;SDS011;8810;48.680;8.894;2022-12-10T10:18:43;38.37;;;17.43;;
17384;SDS011;8810;48.680;8.894;2022-12-10T10:21:14;36.60;;;17.33;;
17384;SDS011;8810;48.680;8.894;2022-12-10T10:23:46;38.23;;;17.23;;
17384;SDS011;8810;48.680;8.894;2022-12-10T10:26:14;34.43;;;16.70;;
17384;SDS011;8810;48.680;8.894;2022-12-10T10:28:41;35.53;;;16.47;;
17384;SDS011;8810;48.680;8.894;2022-12-10T10:31:15;37.00;;;17.20;;
17384;SDS011;8810;48.680;8.894;2022-12-10T10:33:49;35.83;;;17.30;;
17384;SDS011;8810;48.680;8.894;2022-12-10T10:36:22;39.80;;;17.57;;
17384;SDS011;8810;48.680;8.894;2022-12-10T10:38:50;35.33;;;17.17;;
17384;SDS011;8810;48.680;8.894;2022-12-10T10:41:18;33.47;;;16.93;;
17384;SDS011;8810;48.680;8.894;2022-12-10T10:43:45;33.87;;;16.03;;
17384;SDS011;8810;48.680;8.894;2022-12-10T10:46:15;40.10;;;18.13;;
17384;SDS011;8810;48.680;8.894;2022-12-10T10:48:43;34.63;;;16.37;;
17384;SDS011;8810;48.680;8.894;2022-12-10T10:51:15;33.27;;;16.50;;
17384;SDS011;8810;48.680;8.894;2022-12-10T10:53:46;31.33;;;15.27;;
17384;SDS011;8810;48.680;8.894;2022-12-10T10:56:15;30.43;;;15.40;;
17384;SDS011;8810;48.680;8.894;2022-12-10T10:58:55;32.20;;;15.83;;
17384;SDS011;8810;48.680;8.894;2022-12-10T11:01:43;32.50;;;15.60;;
17384;SDS011;8810;48.680;8.894;2022-12-10T11:04:12;30.13;;;15.80;;
17384;SDS011;8810;48.680;8.894;2022-12-10T11:06:39;30.93;;;15.27;;
17384;SDS011;8810;48.680;8.894;2022-12-10T11:09:06;31.67;;;15.67;;
17384;SDS011;8810;48.680;8.894;2022-12-10T11:11:34;31.30;;;15.70;;
17384;SDS011;8810;48.680;8.894;2022-12-10T11:16:51;30.10;;;14.37;;
17384;SDS011;8810;48.680;8.894;2022-12-10T11:19:27;33.37;;;15.73;;
17384;SDS011;8810;48.680;8.894;2022-12-10T11:21:53;29.00;;;15.37;;
17384;SDS011;8810;48.680;8.894;2022-12-10T11:24:20;29.97;;;16.20;;
17384;SDS011;8810;48.680;8.894;2022-12-10T11:26:58;33.70;;;15.83;;
17384;SDS011;8810;48.680;8.894;2022-12-10T11:29:33;32.10;;;15.80;;
17384;SDS011;8810;48.680;8.894;2022-12-10T11:32:17;30.77;;;15.00;;
17384;SDS011;8810;48.680;8.894;2022-12-10T11:34:56;30.53;;;15.00;;
17384;SDS011;8810;48.680;8.894;2022-12-10T11:37:36;28.80;;;14.43;;
17384;SDS011;8810;48.680;8.894;2022-12-10T11:40:20;29.63;;;15.00;;
17384;SDS011;8810;48.680;8.894;2022-12-10T11:43:02;28.87;;;14.40;;
17384;SDS011;8810;48.680;8.894;2022-12-10T11:45:51;27.07;;;13.73;;
17384;SDS011;8810;48.680;8.894;2022-12-10T11:48:30;32.37;;;15.33;;
17384;SDS011;8810;48.680;8.894;2022-12-10T11:51:08;33.30;;;16.33;;
17384;SDS011;8810;48.680;8.894;2022-12-10T11:53:46;27.90;;;14.23;;
17384;SDS011;8810;48.680;8.894;2022-12-10T11:56:26;26.13;;;13.53;;
17384;SDS011;8810;48.680;8.894;2022-12-10T11:59:04;24.87;;;13.37;;
17384;SDS011;8810;48.680;8.894;2022-12-10T12:01:52;29.30;;;14.07;;
17384;SDS011;8810;48.680;8.894;2022-12-10T12:04:41;24.77;;;12.93;;
17384;SDS011;8810;48.680;8.894;2022-12-10T12:07:22;24.77;;;12.57;;
17384;SDS011;8810;48.680;8.894;2022-12-10T12:10:08;27.30;;;13.87;;
17384;SDS011;8810;48.680;8.894;2022-12-10T12:13:07;24.30;;;13.20;;
17384;SDS011;8810;48.680;8.894;2022-12-10T12:15:38;20.57;;;10.93;;
17384;SDS011;8810;48.680;8.894;2022-12-10T12:18:10;24.97;;;11.80;;
17384;SDS011;8810;48.680;8.894;2022-12-10T12:20:44;26.50;;;13.30;;
17384;SDS011;8810;48.680;8.894;2022-12-10T12:23:15;27.77;;;13.97;;
17384;SDS011;8810;48.680;8.894;2022-12-10T12:25:48;26.47;;;12.80;;
17384;SDS011;8810;48.680;8.894;2022-12-10T12:28:20;30.77;;;14.60;;
17384;SDS011;8810;48.680;8.894;2022-12-10T12:30:53;29.67;;;14.30;;
17384;SDS011;8810;48.680;8.894;2022-12-10T12:33:27;22.83;;;12.00;;
17384;SDS011;8810;48.680;8.894;2022-12-10T12:36:00;29.53;;;14.47;;
17384;SDS011;8810;48.680;8.894;2022-12-10T12:38:36;25.93;;;12.87;;
17384;SDS011;8810;48.680;8.894;2022-12-10T12:41:10;32.47;;;14.87;;
17384;SDS011;8810;48.680;8.894;2022-12-10T12:43:43;29.00;;;14.33;;
17384;SDS011;8810;48.680;8.894;2022-12-10T12:46:15;23.53;;;12.23;;
17384;SDS011;8810;48.680;8.894;2022-12-10T12:48:48;23.17;;;12.00;;
17384;SDS011;8810;48.680;8.894;2022-12-10T12:51:23;24.10;;;11.87;;
17384;SDS011;8810;48.680;8.894;2022-12-10T12:53:54;26.03;;;12.93;;
17384;SDS011;8810;48.680;8.894;2022-12-10T12:56:23;26.13;;;12.93;;
17384;SDS011;8810;48.680;8.894;2022-12-10T12:59:02;27.03;;;14.00;;
17384;SDS011;8810;48.680;8.894;2022-12-10T13:01:36;23.30;;;12.87;;
17384;SDS011;8810;48.680;8.894;2022-12-10T13:04:08;25.00;;;12.33;;
17384;SDS011;8810;48.680;8.894;2022-12-10T13:06:38;22.60;;;11.73;;
17384;SDS011;8810;48.680;8.894;2022-12-10T13:09:16;26.23;;;12.43;;
17384;SDS011;8810;48.680;8.894;2022-12-10T13:14:54;27.53;;;13.30;;
17384;SDS011;8810;48.680;8.894;2022-12-10T13:17:31;22.80;;;11.67;;
17384;SDS011;8810;48.680;8.894;2022-12-10T13:22:57;26.73;;;12.70;;
17384;SDS011;8810;48.680;8.894;2022-12-10T13:25:41;28.03;;;13.33;;
17384;SDS011;8810;48.680;8.894;2022-12-10T13:28:22;25.33;;;11.97;;
17384;SDS011;8810;48.680;8.894;2022-12-10T13:34:05;24.27;;;12.33;;
17384;SDS011;8810;48.680;8.894;2022-12-10T13:39:46;25.90;;;12.17;;
17384;SDS011;8810;48.680;8.894;2022-12-10T13:42:26;22.93;;;11.60;;
17384;SDS011;8810;48.680;8.894;2022-12-10T13:45:25;24.30;;;12.90;;
17384;SDS011;8810;48.680;8.894;2022-12-10T13:47:55;21.80;;;11.23;;
17384;SDS011;8810;48.680;8.894;2022-12-10T13:50:43;20.83;;;11.30;;
17384;SDS011;8810;48.680;8.894;2022-12-10T13:53:16;23.63;;;12.03;;
17384;SDS011;8810;48.680;8.894;2022-12-10T13:55:53;24.37;;;11.37;;
17384;SDS011;8810;48.680;8.894;2022-12-10T13:58:31;22.30;;;11.30;;
17384;SDS011;8810;48.680;8.894;2022-12-10T14:01:09;23.47;;;11.63;;
17384;SDS011;8810;48.680;8.894;2022-12-10T14:03:46;33.73;;;15.47;;
17384;SDS011;8810;48.680;8.894;2022-12-10T14:06:25;26.33;;;12.30;;
17384;SDS011;8810;48.680;8.894;2022-12-10T14:08:54;33.07;;;15.50;;
17384;SDS011;8810;48.680;8.894;2022-12-10T14:11:26;35.80;;;16.07;;
17384;SDS011;8810;48.680;8.894;2022-12-10T14:13:56;37.43;;;16.03;;
17384;SDS011;8810;48.680;8.894;2022-12-10T14:16:26;30.83;;;13.97;;
17384;SDS011;8810;48.680;8.894;2022-12-10T14:18:56;35.03;;;14.73;;
17384;SDS011;8810;48.680;8.894;2022-12-10T14:21:26;28.33;;;13.13;;
17384;SDS011;8810;48.680;8.894;2022-12-10T14:23:58;24.57;;;12.40;;
17384;SDS011;8810;48.680;8.894;2022-12-10T14:26:27;26.97;;;13.17;;
17384;SDS011;8810;48.680;8.894;2022-12-10T14:28:56;27.23;;;13.17;;
17384;SDS011;8810;48.680;8.894;2022-12-10T14:31:26;29.67;;;13.53;;
17384;SDS011;8810;48.680;8.894;2022-12-10T14:33:59;23.83;;;12.23;;
17384;SDS011;8810;48.680;8.894;2022-12-10T14:36:28;30.03;;;13.87;;
17384;SDS011;8810;48.680;8.894;2022-12-10T14:38:58;30.17;;;14.30;;
17384;SDS011;8810;48.680;8.894;2022-12-10T14:41:28;26.13;;;12.67;;
17384;SDS011;8810;48.680;8.894;2022-12-10T14:43:57;37.60;;;17.30;;
17384;SDS011;8810;48.680;8.894;2022-12-10T14:46:28;33.57;;;15.90;;
17384;SDS011;8810;48.680;8.894;2022-12-10T14:48:57;39.10;;;17.77;;
17384;SDS011;8810;48.680;8.894;2022-12-10T14:51:24;26.80;;;13.30;;
17384;SDS011;8810;48.680;8.894;2022-12-10T14:53:53;23.00;;;12.57;;
17384;SDS011;8810;48.680;8.894;2022-12-10T14:56:22;21.73;;;11.37;;
17384;SDS011;8810;48.680;8.894;2022-12-10T14:58:54;30.27;;;14.03;;
17384;SDS011;8810;48.680;8.894;2022-12-10T15:01:29;31.23;;;14.93;;
17384;SDS011;8810;48.680;8.894;2022-12-10T15:04:00;34.87;;;16.37;;
17384;SDS011;8810;48.680;8.894;2022-12-10T15:06:32;28.13;;;13.37;;